Time;durP1;ratioP1;P1;durP2;ratioP2;P2;SDS_P1;SDS_P2;PMS_P1;PMS_P2;Temp;Humidity;BMP_temperature;BMP_pressure;BME280_temperature;BME280_humidity;BME280_pressure;Samples;Min_cycle;Max_cycle;Signal;HPM_P1;HPM_P2
2023/10/04 00:02:10;;;;;;;12.50;7.00;;;;;;;-144.30;60.89;85503.78;5090236;28;20286;-58
2023/10/04 00:04:38;;;;;;;11.67;7.77;;;;;;;-144.30;60.71;85527.63;5090109;28;20209;-57
2023/10/04 00:07:07;;;;;;;16.70;7.03;;;;;;;-144.30;60.94;85535.59;5090206;28;20286;-57
2023/10/04 00:09:34;;;;;;;12.03;6.63;;;;;;;-144.30;60.77;85525.66;5089986;28;20684;-58
2023/10/04 00:12:02;;;;;;;16.57;7.43;;;;;;;-144.30;60.71;85452.09;5090374;28;20656;-60
2023/10/04 00:14:30;;;;;;;12.97;6.90;;;;;;;-144.30;60.51;85503.78;5090194;28;20206;-59
2023/10/04 00:16:59;;;;;;;12.70;7.37;;;;;;;-144.30;60.24;85513.72;5090309;28;20199;-57
2023/10/04 00:19:28;;;;;;;11.17;7.30;;;;;;;-144.30;60.75;85519.69;5090002;28;20226;-58
2023/10/04 00:21:54;;;;;;;15.10;6.80;;;;;;;-144.30;60.41;85535.59;5089996;28;20203;-58
2023/10/04 00:24:21;;;;;;;13.70;7.13;;;;;;;-144.30;61.06;85551.50;5090007;28;20604;-57
2023/10/04 00:26:48;;;;;;;13.67;7.47;;;;;;;-144.30;61.39;85523.66;5089845;28;20222;-57
2023/10/04 00:29:17;;;;;;;11.60;7.03;;;;;;;-144.30;62.17;85581.31;5090090;28;20217;-57
2023/10/04 00:31:46;;;;;;;15.00;6.80;;;;;;;-144.30;61.87;85549.50;5090035;28;20202;-58
2023/10/04 00:34:14;;;;;;;13.93;7.53;;;;;;;-144.30;61.98;85535.59;5089895;28;20656;-58
2023/10/04 00:36:41;;;;;;;11.90;7.20;;;;;;;-144.30;62.22;85581.31;5089897;28;20277;-60
2023/10/04 00:39:09;;;;;;;11.30;7.50;;;;;;;-144.30;62.50;85557.47;5089730;28;20223;-60
2023/10/04 00:41:35;;;;;;;12.30;7.63;;;;;;;-144.30;62.77;85559.44;5089755;28;20282;-61
2023/10/04 00:44:09;;;;;;;13.87;8.10;;;;;;;-144.30;63.23;85611.13;5090105;28;20274;-60
2023/10/04 00:46:40;;;;;;;12.57;8.20;;;;;;;-144.30;63.68;85589.28;5090233;28;20761;-59
2023/10/04 00:49:09;;;;;;;17.27;9.27;;;;;;;-144.30;64.07;85559.44;5089628;28;20725;-60
2023/10/04 00:51:37;;;;;;;17.10;9.07;;;;;;;-144.30;64.04;85589.28;5090209;28;20632;-60
2023/10/04 00:54:07;;;;;;;15.70;8.63;;;;;;;-144.30;64.48;85567.41;5090111;28;20637;-59
2023/10/04 00:56:35;;;;;;;15.73;8.97;;;;;;;-144.30;64.52;85579.31;5090084;28;20659;-61
2023/10/04 00:59:03;;;;;;;19.73;9.23;;;;;;;-144.30;64.80;85591.25;5089775;28;20215;-60
2023/10/04 01:01:31;;;;;;;16.13;8.67;;;;;;;-144.30;64.87;85591.25;5089549;28;20199;-60
2023/10/04 01:03:59;;;;;;;17.87;9.20;;;;;;;-144.30;64.91;85579.31;5089951;28;20195;-60
2023/10/04 01:06:28;;;;;;;21.30;9.60;;;;;;;-144.30;64.89;85577.34;5089465;28;20661;-59
2023/10/04 01:08:56;;;;;;;19.33;9.03;;;;;;;-144.30;65.07;85587.28;5089772;28;20591;-59
2023/10/04 01:11:23;;;;;;;19.47;9.60;;;;;;;-144.30;64.72;85607.16;5090036;28;20264;-59
2023/10/04 01:13:53;;;;;;;16.57;9.60;;;;;;;-144.30;65.03;85597.22;5089584;28;20300;-59
2023/10/04 01:16:23;;;;;;;16.43;8.33;;;;;;;-144.30;64.85;85611.13;5089544;28;20191;-60
2023/10/04 01:18:50;;;;;;;16.93;9.23;;;;;;;-144.30;65.08;85627.03;5089387;28;20202;-59
2023/10/04 01:21:17;;;;;;;20.60;9.33;;;;;;;-144.30;64.96;85579.31;5089460;28;20206;-60
2023/10/04 01:23:46;;;;;;;35.90;9.73;;;;;;;-144.30;65.11;85613.13;5091412;28;20777;-59
2023/10/04 01:26:25;;;;;;;21.50;9.93;;;;;;;-144.30;65.62;85619.09;5093147;28;20227;-60
2023/10/04 01:28:53;;;;;;;13.57;8.33;;;;;;;-144.30;65.55;85607.16;5093088;28;20203;-58
2023/10/04 01:31:20;;;;;;;13.27;8.17;;;;;;;-144.30;66.00;85577.34;5093188;28;20226;-58
2023/10/04 01:33:48;;;;;;;30.83;10.77;;;;;;;-144.30;66.10;85638.97;5092977;28;20887;-58
2023/10/04 01:36:14;;;;;;;15.23;8.83;;;;;;;-144.30;66.20;85619.09;5093116;28;20222;-58
2023/10/04 01:38:42;;;;;;;17.07;9.93;;;;;;;-144.30;66.63;85640.97;5092958;28;20205;-57
2023/10/04 01:41:11;;;;;;;18.93;9.63;;;;;;;-144.30;67.48;85621.06;5092678;28;20215;-58
2023/10/04 01:43:38;;;;;;;18.57;9.07;;;;;;;-144.30;67.74;85609.16;5092913;28;20206;-56
2023/10/04 01:46:05;;;;;;;15.40;9.67;;;;;;;-144.30;68.23;85619.09;5093076;28;20227;-58
2023/10/04 01:48:34;;;;;;;17.53;9.40;;;;;;;-144.30;68.44;85646.91;5092697;28;20285;-58
2023/10/04 01:51:04;;;;;;;16.13;10.00;;;;;;;-144.30;68.48;85635.00;5092628;28;20192;-57
2023/10/04 01:53:33;;;;;;;17.37;10.57;;;;;;;-144.30;68.25;85646.91;5092425;28;20281;-58
2023/10/04 01:56:00;;;;;;;18.60;9.97;;;;;;;-144.30;68.18;85652.88;5092569;28;20244;-58
2023/10/04 01:58:28;;;;;;;20.90;11.43;;;;;;;-144.30;68.36;85646.91;5092692;28;20618;-58
2023/10/04 02:00:56;;;;;;;22.97;11.43;;;;;;;-144.30;68.76;85621.06;5092422;28;20229;-58
2023/10/04 02:03:23;;;;;;;28.80;13.10;;;;;;;-144.30;68.84;85666.81;5092491;28;20639;-58
2023/10/04 02:05:50;;;;;;;24.07;11.43;;;;;;;-144.30;68.98;85656.88;5092435;28;20260;-58
2023/10/04 02:08:17;;;;;;;23.30;11.37;;;;;;;-144.30;69.25;85638.97;5104323;28;20260;-58
2023/10/04 02:10:44;;;;;;;28.13;12.23;;;;;;;-144.30;69.73;85690.66;5112669;28;20201;-60
2023/10/04 02:13:15;;;;;;;26.47;11.33;;;;;;;-144.30;69.83;85664.81;5112861;28;20197;-60
2023/10/04 02:15:47;;;;;;;22.53;12.03;;;;;;;-144.30;69.95;85708.56;5112897;28;20228;-60
2023/10/04 02:18:13;;;;;;;22.77;12.03;;;;;;;-144.30;70.02;85684.69;5112632;28;20195;-59
2023/10/04 02:20:46;;;;;;;24.80;12.13;;;;;;;-144.30;69.77;85662.81;5112492;28;20585;-60
2023/10/04 02:23:14;;;;;;;19.37;11.20;;;;;;;-144.30;69.83;85658.84;5112716;28;20748;-57
2023/10/04 02:25:41;;;;;;;25.87;11.53;;;;;;;-144.30;69.71;85668.78;5112296;28;20226;-58
2023/10/04 02:28:11;;;;;;;28.67;12.77;;;;;;;-144.30;69.51;85676.75;5112548;28;20197;-57
2023/10/04 02:30:38;;;;;;;21.20;11.30;;;;;;;-144.30;69.33;85664.81;5112348;28;20736;-60
2023/10/04 02:33:13;;;;;;;20.50;11.03;;;;;;;-144.30;69.09;85702.59;5112220;28;20593;-60
2023/10/04 02:35:44;;;;;;;22.70;11.90;;;;;;;-144.30;69.13;85636.97;5112515;28;20637;-59
2023/10/04 02:38:16;;;;;;;19.27;11.27;;;;;;;-144.30;69.05;85599.22;5112370;28;20191;-60
2023/10/04 02:40:44;;;;;;;17.47;11.57;;;;;;;-144.30;68.95;85684.69;5112082;28;20230;-59
2023/10/04 02:43:11;;;;;;;22.40;10.37;;;;;;;-144.30;69.20;85654.88;5112332;28;20206;-60
2023/10/04 02:45:41;;;;;;;19.50;10.63;;;;;;;-144.30;69.63;85700.59;5111936;28;20199;-61
2023/10/04 02:48:10;;;;;;;17.60;10.70;;;;;;;-144.30;69.88;85710.53;5112364;28;20568;-59
2023/10/04 02:50:39;;;;;;;15.40;10.57;;;;;;;-144.30;70.24;85706.56;5111770;28;20197;-59
2023/10/04 02:53:08;;;;;;;13.13;9.47;;;;;;;-144.30;70.55;85702.59;5111911;28;20242;-58
2023/10/04 02:55:36;;;;;;;19.43;10.00;;;;;;;-144.30;69.88;85682.72;5112373;28;20202;-60
2023/10/04 02:58:07;;;;;;;19.77;9.57;;;;;;;-144.30;69.71;85684.69;5111751;28;20568;-60
2023/10/04 03:00:42;;;;;;;16.80;10.30;;;;;;;-144.30;70.01;85746.31;5111563;28;20226;-60
2023/10/04 03:03:12;;;;;;;16.07;9.57;;;;;;;-144.30;70.11;85694.63;5111963;28;20273;-59
2023/10/04 03:05:40;;;;;;;15.97;9.73;;;;;;;-144.30;70.33;85684.69;5111658;28;20672;-58
2023/10/04 03:08:08;;;;;;;18.10;9.60;;;;;;;-144.30;70.02;85688.66;5111471;28;20194;-59
2023/10/04 03:10:37;;;;;;;21.63;9.87;;;;;;;-144.30;69.85;85658.84;5111360;28;20247;-57
2023/10/04 03:13:11;;;;;;;19.50;9.03;;;;;;;-144.30;69.59;85668.78;5111399;28;20197;-57
2023/10/04 03:15:39;;;;;;;17.00;9.53;;;;;;;-144.30;69.66;86088.31;5111424;28;20202;-55
2023/10/04 03:18:13;;;;;;;15.73;9.17;;;;;;;-144.30;69.42;85690.66;5111415;28;20229;-57
2023/10/04 03:20:53;;;;;;;15.23;8.90;;;;;;;-144.30;69.51;85692.66;5111168;28;20275;-56
2023/10/04 03:23:21;;;;;;;17.50;9.87;;;;;;;-144.30;69.59;85706.56;5111226;28;20238;-56
2023/10/04 03:25:48;;;;;;;16.53;9.50;;;;;;;-144.30;69.86;85704.56;5111131;28;20321;-57
2023/10/04 03:28:15;;;;;;;14.73;9.60;;;;;;;-144.30;70.13;85784.09;5111364;28;20195;-56
2023/10/04 03:30:44;;;;;;;14.63;9.20;;;;;;;-144.30;70.50;85748.31;5111151;28;20635;-56
2023/10/04 03:33:11;;;;;;;18.00;9.83;;;;;;;-144.30;70.39;85702.59;5111144;28;20202;-57
2023/10/04 03:35:43;;;;;;;16.53;9.37;;;;;;;-144.30;70.82;85754.28;5110828;28;20582;-56
2023/10/04 03:38:11;;;;;;;19.50;9.83;;;;;;;-144.30;71.10;85694.63;5110614;28;20199;-57
2023/10/04 03:40:39;;;;;;;15.30;9.03;;;;;;;-144.30;71.35;85730.41;5110749;28;20222;-57
2023/10/04 03:43:07;;;;;;;17.27;9.93;;;;;;;-144.30;70.97;85700.59;5110900;28;20247;-57
2023/10/04 03:45:35;;;;;;;13.10;8.87;;;;;;;-144.30;70.98;85702.59;5110548;28;20657;-56
2023/10/04 03:48:05;;;;;;;18.27;9.70;;;;;;;-144.30;70.96;85726.44;5109741;28;20199;-56
2023/10/04 03:50:32;;;;;;;17.93;9.23;;;;;;;-144.30;70.72;85766.22;5090457;28;20733;-56
2023/10/04 03:52:59;;;;;;;13.23;8.70;;;;;;;-144.30;70.79;85732.41;5092635;28;20277;-58
2023/10/04 03:55:27;;;;;;;17.97;9.40;;;;;;;-144.30;70.92;85692.66;5090394;28;20203;-58
2023/10/04 03:57:54;;;;;;;15.00;9.37;;;;;;;-144.30;71.00;85750.31;5090295;28;20685;-58
2023/10/04 04:00:23;;;;;;;13.80;10.10;;;;;;;-144.30;71.28;86161.88;5098678;28;20222;-58
2023/10/04 04:02:51;;;;;;;17.40;9.87;;;;;;;-144.30;71.49;85738.38;5104007;28;20202;-58
2023/10/04 04:05:21;;;;;;;17.20;9.70;;;;;;;-144.30;72.09;85746.31;5100771;28;20267;-57
2023/10/04 04:07:48;;;;;;;14.83;9.60;;;;;;;-144.30;72.53;85734.41;5110637;28;20209;-57
2023/10/04 04:10:16;;;;;;;20.33;9.80;;;;;;;-144.30;72.35;85780.13;5095241;28;20268;-58
2023/10/04 04:12:46;;;;;;;18.80;10.07;;;;;;;-144.30;72.44;85754.28;5101744;28;20206;-58
2023/10/04 04:15:14;;;;;;;14.30;10.07;;;;;;;-144.30;73.05;85748.31;5095872;28;20735;-59
2023/10/04 04:17:44;;;;;;;16.80;9.83;;;;;;;-144.30;73.85;85742.34;5095423;28;20191;-57
2023/10/04 04:20:14;;;;;;;20.00;10.53;;;;;;;-144.30;74.38;85712.53;5104206;28;20606;-58
2023/10/04 04:22:43;;;;;;;17.60;11.43;;;;;;;-144.30;74.79;85790.06;5097200;28;20202;-58
2023/10/04 04:25:15;;;;;;;17.57;10.57;;;;;;;-144.30;75.07;85784.09;5093833;28;20665;-58
2023/10/04 04:27:45;;;;;;;22.70;10.83;;;;;;;-144.30;75.23;85778.13;5090117;28;20273;-59
2023/10/04 04:30:19;;;;;;;19.10;10.53;;;;;;;-144.30;75.07;85766.22;5090234;28;20203;-58
2023/10/04 04:32:47;;;;;;;24.53;11.00;;;;;;;-144.30;75.08;85748.31;5090176;28;20199;-58
2023/10/04 04:35:22;;;;;;;21.50;10.70;;;;;;;-144.30;75.04;85766.22;5089925;28;20199;-59
2023/10/04 04:37:54;;;;;;;16.47;10.43;;;;;;;-144.30;74.71;85762.22;5089960;28;20195;-58
2023/10/04 04:40:25;;;;;;;19.37;10.30;;;;;;;-144.30;74.30;85774.16;5098420;28;20227;-58
2023/10/04 04:42:52;;;;;;;18.43;10.67;;;;;;;-144.30;74.28;85754.28;5109398;28;20647;-59
2023/10/04 04:45:24;;;;;;;29.83;10.53;;;;;;;-144.30;73.87;85607.16;5109616;28;20205;-59
2023/10/04 04:47:51;;;;;;;24.53;10.70;;;;;;;-144.30;73.75;85778.13;5110343;28;20194;-57
2023/10/04 04:50:19;;;;;;;24.07;12.07;;;;;;;-144.30;73.53;85784.09;5110296;28;20193;-58
2023/10/04 04:52:46;;;;;;;22.57;11.87;;;;;;;-144.30;73.47;85770.19;5110426;28;20656;-58
2023/10/04 04:55:14;;;;;;;27.70;10.93;;;;;;;-144.30;72.54;85738.38;5110334;28;20699;-57
2023/10/04 04:57:41;;;;;;;26.03;10.27;;;;;;;-144.30;72.27;85726.44;5110413;28;20350;-59
2023/10/04 05:00:31;;;;;;;21.00;9.90;;;;;;;-144.30;71.86;85738.38;5113929;28;20252;-59
2023/10/04 05:03:00;;;;;;;23.60;10.47;;;;;;;-144.30;71.52;85700.59;5113782;28;20199;-56
2023/10/04 05:05:26;;;;;;;22.87;10.83;;;;;;;-144.30;70.82;85676.75;5113744;28;20198;-57
2023/10/04 05:07:53;;;;;;;24.13;10.60;;;;;;;-144.30;70.88;85676.75;5114058;28;20276;-58
2023/10/04 05:10:22;;;;;;;23.33;10.40;;;;;;;-144.30;70.19;85650.91;5114319;28;20191;-58
2023/10/04 05:12:50;;;;;;;16.80;10.07;;;;;;;-144.30;69.61;85680.72;5114121;28;20731;-58
2023/10/04 05:15:27;;;;;;;46.67;10.60;;;;;;;-144.30;68.77;85642.94;5113499;28;20195;-58
2023/10/04 05:17:54;;;;;;;19.93;10.00;;;;;;;-144.30;66.34;85551.50;5113707;28;20220;-59
2023/10/04 05:20:25;;;;;;;26.77;10.53;;;;;;;-144.30;63.17;85448.13;5113653;28;20229;-58
2023/10/04 05:22:52;;;;;;;30.40;9.30;;;;;;;-144.30;58.99;85295.06;5113731;28;20198;-58
2023/10/04 05:25:20;;;;;;;21.57;10.20;;;;;;;-144.30;54.73;85199.63;5113256;28;20236;-58
2023/10/04 05:27:49;;;;;;;18.77;9.40;;;;;;;-144.30;52.25;85114.16;5113455;28;20195;-58
2023/10/04 05:30:16;;;;;;;22.60;10.77;;;;;;;-144.30;49.29;84980.97;5113389;28;20198;-58
2023/10/04 05:32:44;;;;;;;14.43;10.20;;;;;;;-144.30;47.50;84895.50;5113625;28;20744;-57
2023/10/04 05:35:14;;;;;;;17.80;9.82;;;;;;;-144.30;45.81;84823.94;5113590;28;20667;-58
2023/10/04 05:37:44;;;;;;;12.55;9.45;;;;;;;-144.30;44.61;85126.09;5113459;28;20199;-57
2023/10/04 05:40:16;;;;;;;15.57;9.40;;;;;;;-144.30;42.72;84615.25;5113372;28;20675;-57
2023/10/04 05:42:44;;;;;;;19.40;9.88;;;;;;;-144.30;40.50;84496.00;5112989;28;20780;-58
2023/10/04 05:45:12;;;;;;;20.30;10.05;;;;;;;-144.30;39.42;84366.84;5112492;28;20201;-58
2023/10/04 05:47:39;;;;;;;15.35;10.45;;;;;;;-144.30;38.44;84299.25;5111735;28;20197;-58
2023/10/04 05:50:10;;;;;;;14.07;10.20;;;;;;;-144.30;36.59;84132.34;5113252;28;20191;-57
2023/10/04 05:52:37;;;;;;;15.80;10.20;;;;;;;-144.30;35.66;84042.91;5113002;28;20190;-57
2023/10/04 05:55:08;;;;;;;19.80;9.68;;;;;;;-144.30;34.79;83945.53;5111557;28;20205;-58
2023/10/04 05:57:35;;;;;;;35.33;10.35;;;;;;;-144.30;33.96;83925.66;5109498;28;20285;-58
2023/10/04 06:00:14;;;;;;;20.95;9.57;;;;;;;-144.30;33.32;83798.50;5112808;28;20201;-58
2023/10/04 06:02:43;;;;;;;20.13;9.85;;;;;;;-144.30;32.09;83633.59;5112749;28;20194;-59
2023/10/04 06:05:10;;;;;;;14.43;10.32;;;;;;;-144.30;31.12;83564.03;5112722;28;20198;-59
2023/10/04 06:07:37;;;;;;;12.45;10.15;;;;;;;-144.30;31.21;83575.97;5112796;28;20190;-59
2023/10/04 06:10:06;;;;;;;14.30;9.40;;;;;;;-144.30;30.73;83510.41;5112337;28;20632;-59
2023/10/04 06:12:33;;;;;;;23.50;10.68;;;;;;;-144.30;30.69;83587.88;5112777;28;20559;-58
2023/10/04 06:14:59;;;;;;;19.17;9.55;;;;;;;-144.30;31.06;83617.69;5112839;28;20205;-58
2023/10/04 06:17:28;;;;;;;24.13;9.77;;;;;;;-144.30;30.24;83512.38;5112613;28;20191;-58
2023/10/04 06:19:54;;;;;;;12.48;9.50;;;;;;;-144.30;29.94;83428.94;5112607;28;20198;-59
2023/10/04 06:22:21;;;;;;;19.60;9.82;;;;;;;-144.30;29.53;83365.34;5112115;28;20242;-61
2023/10/04 06:24:49;;;;;;;20.90;9.55;;;;;;;-144.30;28.71;82987.88;5112183;28;20190;-60
2023/10/04 06:27:18;;;;;;;17.30;9.18;;;;;;;-144.30;28.27;83025.63;5112348;28;20261;-60
2023/10/04 06:29:45;;;;;;;22.15;10.60;;;;;;;-144.30;27.21;82884.59;5112318;28;20198;-60
2023/10/04 06:32:12;;;;;;;16.98;9.32;;;;;;;-144.30;27.24;82924.31;5112075;28;20205;-61
2023/10/04 06:34:38;;;;;;;16.38;9.70;;;;;;;-144.30;27.15;82886.56;5112107;28;20326;-59
2023/10/04 06:37:05;;;;;;;17.40;9.23;;;;;;;-144.30;26.63;82741.56;5112039;28;20205;-61
2023/10/04 06:39:33;;;;;;;22.75;9.05;;;;;;;-144.30;26.36;82685.94;5112059;28;20200;-60
2023/10/04 06:42:00;;;;;;;20.98;9.13;;;;;;;-144.30;26.32;82612.44;5105234;28;20218;-59
2023/10/04 06:44:28;;;;;;;19.40;9.57;;;;;;;-144.30;26.10;82529.03;5111972;28;20556;-59
2023/10/04 06:46:55;;;;;;;22.88;9.55;;;;;;;-144.30;25.77;82525.06;5111944;28;20213;-58
2023/10/04 06:49:23;;;;;;;14.60;9.45;;;;;;;-144.30;25.37;82479.38;5111575;28;20201;-60
2023/10/04 06:51:50;;;;;;;17.65;9.55;;;;;;;-144.30;25.51;82447.59;5111621;28;20190;-59
2023/10/04 06:54:17;;;;;;;14.57;9.30;;;;;;;-144.30;25.83;82479.38;5111808;28;20194;-59
2023/10/04 06:56:44;;;;;;;15.98;9.25;;;;;;;-144.30;25.56;82451.56;5111459;28;20198;-60
2023/10/04 06:59:12;;;;;;;29.95;9.65;;;;;;;-144.30;25.40;82423.75;5111437;28;20194;-58
2023/10/04 07:01:40;;;;;;;16.42;10.25;;;;;;;-144.30;25.10;82300.63;5111554;28;20254;-59
2023/10/04 07:04:07;;;;;;;16.55;9.70;;;;;;;-144.30;24.83;82155.63;5110817;28;20190;-60
2023/10/04 07:06:34;;;;;;;17.83;9.82;;;;;;;-144.30;24.72;82141.72;5111407;28;20187;-59
2023/10/04 07:09:01;;;;;;;24.58;10.07;;;;;;;-144.30;25.44;82443.63;5110763;28;20671;-59
2023/10/04 07:11:28;;;;;;;16.75;9.80;;;;;;;-144.30;27.18;82991.88;5091316;28;20195;-59
2023/10/04 07:13:55;;;;;;;14.30;10.45;;;;;;;-144.30;28.77;83387.22;5091462;28;20198;-58
2023/10/04 07:16:22;;;;;;;22.73;11.55;;;;;;;-144.30;30.87;83701.13;5091077;28;20264;-58
2023/10/04 07:18:50;;;;;;;19.60;10.65;;;;;;;-144.30;32.67;83985.28;5100897;28;20194;-59
2023/10/04 07:21:17;;;;;;;51.58;36.35;;;;;;;-144.30;34.69;84142.28;5110168;28;20225;-57
2023/10/04 07:23:44;;;;;;;40.72;25.88;;;;;;;-144.30;36.21;84281.38;5110639;28;20194;-57
2023/10/04 07:26:11;;;;;;;17.42;9.93;;;;;;;-144.30;38.30;84390.69;5110631;28;20229;-59
2023/10/04 07:28:40;;;;;;;26.10;13.88;;;;;;;-144.30;38.44;84470.19;5110753;28;20269;-59
2023/10/04 07:31:07;;;;;;;18.08;9.70;;;;;;;-144.30;39.95;84577.50;5110616;28;20191;-58
2023/10/04 07:33:33;;;;;;;19.05;10.98;;;;;;;-144.30;40.90;84597.38;5110481;28;20201;-59
2023/10/04 07:36:02;;;;;;;18.20;9.95;;;;;;;-144.30;41.74;84623.22;5111103;28;20560;-58
2023/10/04 07:38:29;;;;;;;18.48;13.18;;;;;;;-144.30;42.22;84639.13;5110671;28;20285;-57
2023/10/04 07:40:56;;;;;;;34.55;22.15;;;;;;;-144.30;42.27;84662.97;5106501;28;20203;-57
2023/10/04 07:43:23;;;;;;;20.67;13.13;;;;;;;-144.30;42.91;84686.81;5090528;28;20665;-58
2023/10/04 07:45:50;;;;;;;16.10;10.77;;;;;;;-144.30;42.95;84668.94;5089599;28;20192;-58
2023/10/04 07:48:17;;;;;;;20.00;9.40;;;;;;;-144.30;43.21;84684.81;5099043;28;20201;-58
2023/10/04 07:50:46;;;;;;;21.02;12.68;;;;;;;-144.30;42.99;84666.94;5097949;28;20226;-58
2023/10/04 07:53:14;;;;;;;28.48;13.90;;;;;;;-144.30;43.46;84694.75;5107386;28;20199;-58
2023/10/04 07:55:41;;;;;;;27.52;14.18;;;;;;;-144.30;43.80;84702.72;5104212;28;20195;-58
2023/10/04 07:58:09;;;;;;;20.90;14.20;;;;;;;-144.30;43.89;84728.56;5096529;28;20294;-58
2023/10/04 08:00:36;;;;;;;31.70;13.38;;;;;;;-144.30;44.08;84710.66;5102600;28;20198;-58
2023/10/04 08:03:04;;;;;;;30.08;10.43;;;;;;;-144.30;44.01;84712.66;5097223;28;20611;-59
2023/10/04 08:05:32;;;;;;;18.27;10.15;;;;;;;-144.30;43.92;84708.66;5110059;28;20194;-58
2023/10/04 08:08:01;;;;;;;26.42;13.70;;;;;;;-144.30;44.57;84724.56;5104470;28;20202;-59
2023/10/04 08:10:32;;;;;;;17.42;9.45;;;;;;;-144.30;44.35;84734.50;5105422;28;20688;-58
2023/10/04 08:13:01;;;;;;;19.83;10.02;;;;;;;-144.30;44.96;84750.41;5107936;28;20194;-58
2023/10/04 08:15:29;;;;;;;18.52;11.85;;;;;;;-144.30;44.40;84726.56;5089997;28;20699;-57
2023/10/04 08:17:58;;;;;;;16.25;9.80;;;;;;;-144.30;44.39;84710.66;5089530;28;20196;-57
2023/10/04 08:20:28;;;;;;;18.08;9.60;;;;;;;-144.30;44.57;84698.75;5102922;28;20209;-58
2023/10/04 08:22:57;;;;;;;24.70;10.45;;;;;;;-144.30;44.54;84768.31;5110095;28;20225;-58
2023/10/04 08:25:25;;;;;;;17.45;9.77;;;;;;;-144.30;44.67;84746.44;5109596;28;20195;-59
2023/10/04 08:27:53;;;;;;;20.25;12.32;;;;;;;-144.30;44.61;84724.56;5110321;28;20756;-58
2023/10/04 08:30:20;;;;;;;14.32;9.27;;;;;;;-144.30;43.88;84756.38;5109659;28;20281;-59
2023/10/04 08:32:49;;;;;;;16.55;10.05;;;;;;;-144.30;43.86;84734.50;5111388;28;20244;-58
2023/10/04 08:35:24;;;;;;;16.48;9.30;;;;;;;-144.30;44.22;84760.34;5113610;28;20225;-58
2023/10/04 08:37:54;;;;;;;18.30;9.57;;;;;;;-144.30;44.34;84742.47;5114319;28;20201;-58
2023/10/04 08:40:21;;;;;;;15.10;8.98;;;;;;;-144.30;44.38;84680.84;5114567;28;20217;-59
2023/10/04 08:42:50;;;;;;;19.88;9.18;;;;;;;-144.30;43.77;84660.97;5114141;28;20225;-58
2023/10/04 08:45:19;;;;;;;19.35;10.95;;;;;;;-144.30;43.33;84696.75;5114112;28;20212;-59
2023/10/04 08:47:51;;;;;;;19.75;10.45;;;;;;;-144.30;43.26;84662.97;5099715;28;20210;-59
2023/10/04 08:50:27;;;;;;;24.55;14.85;;;;;;;-144.30;42.99;84645.06;5093367;28;20668;-58
2023/10/04 08:53:04;;;;;;;16.13;10.80;;;;;;;-144.30;42.44;84682.84;5093732;28;20259;-58
2023/10/04 08:55:37;;;;;;;14.20;9.65;;;;;;;-144.30;42.32;84657.00;5093739;28;20756;-58
2023/10/04 08:58:05;;;;;;;22.20;11.65;;;;;;;-144.30;42.71;84664.94;5093509;28;20203;-58
2023/10/04 09:00:37;;;;;;;18.25;9.93;;;;;;;-144.30;42.37;84633.16;5093442;28;20230;-59
2023/10/04 09:03:06;;;;;;;21.05;12.15;;;;;;;-144.30;42.36;84639.13;5093799;28;20277;-59
2023/10/04 09:05:34;;;;;;;16.58;9.00;;;;;;;-144.30;41.98;84581.47;5093516;28;20587;-59
2023/10/04 09:08:04;;;;;;;13.00;9.40;;;;;;;-144.30;41.64;84563.59;5093621;28;20589;-59
2023/10/04 09:10:32;;;;;;;16.92;9.02;;;;;;;-144.30;40.86;84579.50;5093353;28;20234;-58
2023/10/04 09:13:00;;;;;;;18.10;8.98;;;;;;;-144.30;41.11;84581.47;5093360;28;20205;-59
2023/10/04 09:15:27;;;;;;;12.60;9.20;;;;;;;-144.30;40.84;84573.53;5093115;28;20564;-60
2023/10/04 09:17:57;;;;;;;14.98;9.68;;;;;;;-144.30;41.06;84561.59;5093572;28;20210;-59
2023/10/04 09:20:27;;;;;;;20.90;9.55;;;;;;;-144.30;40.95;84533.78;5093412;28;20202;-59
2023/10/04 09:22:54;;;;;;;15.55;9.43;;;;;;;-144.30;40.84;84553.66;5101950;28;20262;-59
2023/10/04 09:25:22;;;;;;;22.20;8.25;;;;;;;-144.30;40.87;84573.53;5096317;28;20203;-58
2023/10/04 09:27:55;;;;;;;12.57;10.00;;;;;;;-144.30;40.89;84533.78;5092871;28;20199;-59
2023/10/04 09:30:23;;;;;;;15.02;8.88;;;;;;;-144.30;40.62;84545.69;5093041;28;20582;-59
2023/10/04 09:32:52;;;;;;;11.77;8.80;;;;;;;-144.30;40.62;84521.84;5093162;28;20713;-59
2023/10/04 09:35:21;;;;;;;14.18;7.75;;;;;;;-144.30;40.63;84523.84;5093009;28;20734;-60
2023/10/04 09:37:49;;;;;;;20.13;8.60;;;;;;;-144.30;40.46;84444.34;5092744;28;20673;-60
2023/10/04 09:40:23;;;;;;;12.57;8.57;;;;;;;-144.30;40.27;84464.22;5096561;28;20190;-58
2023/10/04 09:42:52;;;;;;;9.73;7.63;;;;;;;-144.30;40.46;84468.19;5113043;28;20218;-59
2023/10/04 09:45:21;;;;;;;15.65;8.82;;;;;;;-144.30;40.34;84458.25;5112498;28;20752;-59
2023/10/04 09:47:51;;;;;;;19.95;8.75;;;;;;;-144.30;40.22;84474.16;5112908;28;20186;-59
2023/10/04 09:50:23;;;;;;;16.35;8.90;;;;;;;-144.30;40.12;84430.44;5113043;28;20195;-59
2023/10/04 09:52:50;;;;;;;13.68;8.88;;;;;;;-144.30;40.02;84474.16;5112743;28;20230;-59
2023/10/04 09:55:20;;;;;;;15.80;9.10;;;;;;;-144.30;39.91;84446.31;5112849;28;20198;-59
2023/10/04 09:57:48;;;;;;;13.38;9.00;;;;;;;-144.30;39.56;84430.44;5112683;28;20225;-57
2023/10/04 10:00:18;;;;;;;16.67;8.40;;;;;;;-144.30;39.49;84410.56;5112860;28;20540;-58
2023/10/04 10:02:50;;;;;;;11.18;8.25;;;;;;;-144.30;39.46;84432.41;5112771;28;20505;-59
2023/10/04 10:05:29;;;;;;;14.85;8.75;;;;;;;-144.30;39.53;84406.59;5112620;28;20689;-59
2023/10/04 10:08:04;;;;;;;15.80;8.57;;;;;;;-144.30;39.40;84390.69;5112609;28;20202;-59
2023/10/04 10:10:34;;;;;;;15.52;9.68;;;;;;;-144.30;39.38;84362.84;5112518;28;20194;-58
2023/10/04 10:13:02;;;;;;;14.00;11.10;;;;;;;-144.30;39.07;84400.63;5112389;28;20191;-59
2023/10/04 10:15:29;;;;;;;17.75;10.00;;;;;;;-144.30;39.02;84372.78;5112349;28;20195;-59
2023/10/04 10:17:56;;;;;;;17.17;8.10;;;;;;;-144.30;39.04;84346.97;5112271;28;20735;-59
2023/10/04 10:20:24;;;;;;;15.18;8.75;;;;;;;-144.30;38.62;84327.09;5112342;28;20230;-58
2023/10/04 10:23:13;;;;;;;14.48;8.85;;;;;;;-144.30;38.66;84329.06;5112522;28;20218;-58
2023/10/04 10:25:41;;;;;;;22.45;9.20;;;;;;;-144.30;38.82;84295.28;5112228;28;20249;-58
2023/10/04 10:28:21;;;;;;;18.00;8.90;;;;;;;-144.30;38.50;84247.59;5112234;28;20206;-58
2023/10/04 10:30:48;;;;;;;17.65;9.23;;;;;;;-144.30;38.18;84219.78;5112173;27;20194;-58
2023/10/04 10:33:22;;;;;;;21.17;9.30;;;;;;;-144.30;37.94;84237.66;5112162;28;20285;-58
2023/10/04 10:35:59;;;;;;;15.73;8.20;;;;;;;-144.30;37.59;84229.72;5112055;28;20272;-58
2023/10/04 10:38:47;;;;;;;13.20;8.52;;;;;;;-144.30;37.65;84197.91;5111840;28;20293;-58
2023/10/04 10:41:48;;;;;;;17.63;10.05;;;;;;;-144.30;37.68;84209.84;5112271;28;20282;-59
2023/10/04 10:44:19;;;;;;;17.17;9.35;;;;;;;-144.30;37.84;84237.66;5099577;28;20718;-58
2023/10/04 10:46:54;;;;;;;18.67;10.15;;;;;;;-144.30;37.45;84209.84;5111839;28;20194;-58
2023/10/04 10:49:40;;;;;;;10.38;7.93;;;;;;;-144.30;37.57;84215.78;5111739;28;20268;-59
2023/10/04 10:52:10;;;;;;;13.18;8.75;;;;;;;-144.30;38.01;84193.94;5112030;28;20194;-59
2023/10/04 10:54:37;;;;;;;11.32;8.98;;;;;;;-144.30;37.40;84152.22;5111743;28;20202;-58
2023/10/04 10:57:05;;;;;;;13.40;8.38;;;;;;;-144.30;36.82;84154.19;5110615;28;20199;-58
2023/10/04 10:59:33;;;;;;;14.52;8.73;;;;;;;-144.30;36.74;84176.06;5111553;28;20205;-58
2023/10/04 11:02:01;;;;;;;14.18;9.60;;;;;;;-144.30;36.44;84156.19;5099809;28;20952;-58
2023/10/04 11:04:28;;;;;;;14.52;9.27;;;;;;;-144.30;36.66;84114.44;5098573;28;20195;-59
2023/10/04 11:06:56;;;;;;;15.88;8.00;;;;;;;-144.30;36.07;84108.50;5111153;28;20297;-59
2023/10/04 11:09:24;;;;;;;16.02;8.77;;;;;;;-144.30;36.13;84110.47;5098561;28;20198;-58
2023/10/04 11:11:51;;;;;;;11.90;8.25;;;;;;;-144.30;36.14;84128.34;5098861;28;20214;-59
2023/10/04 11:14:20;;;;;;;17.27;8.77;;;;;;;-144.30;36.02;84132.34;5103079;28;20203;-59
2023/10/04 11:16:47;;;;;;;14.98;8.43;;;;;;;-144.30;36.33;84172.06;5103026;28;20191;-59